Time;durP1;ratioP1;P1;durP2;ratioP2;P2;SDS_P1;SDS_P2;PMS_P1;PMS_P2;Temp;Humidity;BMP_temperature;BMP_pressure;BME280_temperature;BME280_humidity;BME280_pressure;Samples;Min_cycle;Max_cycle;Signal;HPM_P1;HPM_P2
2023/12/30 00:01:56;;;;;;;3.77;2.90;;;8.60;1.00;;;;;;5097536;28;20336;-44
2023/12/30 00:04:22;;;;;;;2.67;2.47;;;8.60;1.00;;;;;;5097948;28;20577;-44
2023/12/30 00:06:48;;;;;;;2.97;2.67;;;8.60;1.00;;;;;;5096729;28;20728;-42
2023/12/30 00:09:13;;;;;;;3.23;2.87;;;8.70;1.00;;;;;;5098036;28;20474;-43
2023/12/30 00:11:39;;;;;;;4.10;2.57;;;8.70;1.00;;;;;;5095775;28;20186;-45
2023/12/30 00:14:04;;;;;;;2.87;2.63;;;8.70;1.00;;;;;;5095130;28;20200;-45
2023/12/30 00:16:30;;;;;;;3.33;3.03;;;8.70;99.90;;;;;;5095669;28;20549;-42
2023/12/30 00:18:56;;;;;;;3.57;2.90;;;8.80;99.90;;;;;;5095868;28;20678;-42
2023/12/30 00:21:22;;;;;;;2.73;2.53;;;8.80;99.90;;;;;;5097100;28;20181;-43
2023/12/30 00:23:48;;;;;;;2.97;2.60;;;8.80;99.90;;;;;;5096999;28;20308;-44
2023/12/30 00:26:21;;;;;;;3.07;2.77;;;8.80;99.90;;;;;;5096426;28;20510;-41
2023/12/30 00:28:49;;;;;;;3.17;2.50;;;8.80;99.90;;;;;;5095060;28;20499;-45
2023/12/30 00:31:25;;;;;;;3.60;2.97;;;8.80;99.90;;;;;;5094353;28;20466;-42
2023/12/30 00:33:51;;;;;;;3.80;2.67;;;8.80;99.90;;;;;;5094660;28;20426;-42
2023/12/30 00:36:17;;;;;;;3.43;2.63;;;8.80;99.90;;;;;;5095383;28;20450;-46
2023/12/30 00:38:43;;;;;;;3.33;2.97;;;8.80;99.90;;;;;;5095679;28;20515;-43
2023/12/30 00:41:08;;;;;;;2.80;2.60;;;8.70;1.00;;;;;;5097158;28;20173;-42
2023/12/30 00:43:34;;;;;;;3.97;2.67;;;8.70;1.00;;;;;;5097318;28;20237;-42
2023/12/30 00:46:00;;;;;;;3.27;2.77;;;8.70;1.00;;;;;;5098138;28;20203;-43
2023/12/30 00:48:25;;;;;;;3.60;2.50;;;8.70;1.00;;;;;;5098283;28;20423;-45
2023/12/30 00:50:51;;;;;;;2.77;2.57;;;8.70;1.00;;;;;;5097750;28;20207;-45
2023/12/30 00:53:16;;;;;;;4.43;3.27;;;8.70;1.00;;;;;;5097394;28;20278;-43
2023/12/30 00:55:42;;;;;;;3.27;2.60;;;8.60;1.00;;;;;;5097669;28;20551;-44
2023/12/30 00:58:07;;;;;;;3.00;2.57;;;8.70;1.00;;;;;;5096670;28;20578;-45
2023/12/30 01:00:33;;;;;;;3.87;3.40;;;8.60;1.00;;;;;;5097064;28;20192;-42
2023/12/30 01:02:58;;;;;;;4.03;3.30;;;8.60;1.00;;;;;;5115984;28;20186;-45
2023/12/30 01:05:24;;;;;;;2.97;2.67;;;8.70;1.00;;;;;;5113736;28;20187;-43
2023/12/30 01:07:49;;;;;;;3.40;3.10;;;8.60;1.00;;;;;;5114366;28;20208;-42
2023/12/30 01:10:18;;;;;;;3.70;2.47;;;8.60;1.00;;;;;;5116333;28;20272;-42
2023/12/30 01:12:43;;;;;;;4.43;2.30;;;8.60;1.00;;;;;;5117616;28;20191;-42
2023/12/30 01:15:09;;;;;;;2.93;2.63;;;8.70;1.00;;;;;;5117348;28;20734;-42
2023/12/30 01:17:35;;;;;;;3.00;2.70;;;8.70;99.90;;;;;;5116823;28;20297;-42
2023/12/30 01:20:01;;;;;;;2.43;2.23;;;8.70;99.90;;;;;;5117049;28;20838;-42
2023/12/30 01:22:26;;;;;;;5.37;2.63;;;8.70;99.90;;;;;;5115977;28;20172;-43
2023/12/30 01:24:52;;;;;;;3.07;2.77;;;8.70;1.00;;;;;;5114936;28;20675;-44
2023/12/30 01:27:17;;;;;;;2.27;1.97;;;8.80;1.00;;;;;;5113374;28;20167;-43
2023/12/30 01:29:43;;;;;;;4.20;2.40;;;8.80;99.90;;;;;;5113911;28;20219;-43
2023/12/30 01:32:08;;;;;;;2.70;2.50;;;8.90;99.90;;;;;;5113790;28;20727;-42
2023/12/30 01:34:34;;;;;;;2.63;2.37;;;8.90;99.90;;;;;;5113765;28;20277;-42
2023/12/30 01:36:59;;;;;;;3.03;2.47;;;8.90;1.00;;;;;;5113473;28;20176;-44
2023/12/30 01:39:25;;;;;;;4.63;3.20;;;9.00;1.00;;;;;;5113301;28;20168;-43
2023/12/30 01:41:51;;;;;;;3.93;3.30;;;8.90;1.00;;;;;;5117404;28;20211;-42
2023/12/30 01:44:17;;;;;;;3.00;2.60;;;8.90;1.00;;;;;;5117661;27;20463;-43
2023/12/30 01:46:44;;;;;;;3.23;2.57;;;8.90;1.00;;;;;;5117596;28;20547;-42
2023/12/30 01:49:11;;;;;;;2.70;2.50;;;8.80;1.00;;;;;;5116907;28;20208;-42
2023/12/30 01:51:36;;;;;;;3.67;2.50;;;8.80;1.00;;;;;;5117026;28;20489;-44
2023/12/30 01:54:04;;;;;;;3.37;2.77;;;8.80;1.00;;;;;;5116805;28;20660;-42
2023/12/30 01:56:31;;;;;;;4.07;2.97;;;8.80;61.00;;;;;;5114119;28;20333;-46
2023/12/30 01:58:57;;;;;;;4.10;2.70;;;8.80;99.90;;;;;;5115003;28;20546;-43
2023/12/30 02:01:26;;;;;;;4.60;2.70;;;8.70;99.90;;;;;;5115152;28;20533;-46
2023/12/30 02:03:52;;;;;;;3.13;2.67;;;8.70;1.00;;;;;;5116289;28;20172;-44
2023/12/30 02:06:17;;;;;;;3.47;2.90;;;8.70;1.00;;;;;;5115707;28;20418;-43
2023/12/30 02:08:44;;;;;;;2.83;2.53;;;8.60;1.00;;;;;;5116171;28;20255;-44
2023/12/30 02:11:10;;;;;;;3.30;2.60;;;8.50;1.00;;;;;;5113885;28;20489;-43
2023/12/30 02:13:36;;;;;;;3.03;2.60;;;8.50;66.40;;;;;;5114179;28;20421;-43
2023/12/30 02:16:01;;;;;;;2.80;2.50;;;8.50;1.00;;;;;;5116416;28;20664;-45
2023/12/30 02:18:27;;;;;;;3.70;2.77;;;8.50;99.90;;;;;;5116240;28;20563;-45
2023/12/30 02:20:52;;;;;;;3.53;2.87;;;8.50;16.60;;;;;;5114651;28;20553;-43
2023/12/30 02:23:18;;;;;;;2.47;2.27;;;8.50;2.50;;;;;;5114434;28;20192;-44
2023/12/30 02:25:44;;;;;;;4.03;3.03;;;8.40;99.90;;;;;;5114666;28;20565;-41
2023/12/30 02:28:09;;;;;;;3.00;2.47;;;8.40;99.90;;;;;;5115787;28;20184;-41
2023/12/30 02:30:35;;;;;;;3.30;2.40;;;8.40;99.90;;;;;;5116033;28;20228;-44
2023/12/30 02:33:00;;;;;;;3.30;2.60;;;8.30;99.90;;;;;;5115297;28;20562;-42
2023/12/30 02:35:27;;;;;;;3.60;3.30;;;8.30;99.90;;;;;;5116334;28;20168;-43
2023/12/30 02:37:53;;;;;;;8.03;2.70;;;8.30;99.90;;;;;;5115701;28;20179;-47
2023/12/30 02:40:19;;;;;;;2.30;2.07;;;8.30;99.90;;;;;;5114889;28;20425;-44
2023/12/30 02:42:44;;;;;;;4.70;3.17;;;8.30;99.90;;;;;;5115819;28;20175;-43
2023/12/30 02:45:11;;;;;;;3.47;2.73;;;8.20;99.90;;;;;;5116091;28;20410;-42
2023/12/30 02:47:37;;;;;;;4.23;2.83;;;8.20;99.90;;;;;;5116080;28;20176;-45
2023/12/30 02:50:03;;;;;;;6.90;3.50;;;8.20;99.90;;;;;;5116179;28;20465;-44
2023/12/30 02:52:30;;;;;;;3.20;2.80;;;8.20;99.90;;;;;;5117276;28;20174;-45
2023/12/30 02:54:56;;;;;;;4.50;2.63;;;8.20;99.90;;;;;;5117824;28;20488;-42
2023/12/30 02:57:23;;;;;;;2.87;2.57;;;8.10;99.90;;;;;;5118130;27;20425;-44
2023/12/30 02:59:49;;;;;;;3.17;2.37;;;8.10;1.00;;;;;;5119948;28;20451;-44
2023/12/30 03:02:14;;;;;;;3.30;2.83;;;8.10;1.00;;;;;;5119754;28;20835;-43
2023/12/30 03:04:40;;;;;;;3.07;2.77;;;8.20;1.00;;;;;;5120604;28;20179;-43
2023/12/30 03:07:05;;;;;;;3.10;2.30;;;8.10;1.00;;;;;;5119492;28;20188;-42
2023/12/30 03:09:31;;;;;;;5.27;2.53;;;8.10;1.00;;;;;;5119641;28;20543;-43
2023/12/30 03:11:56;;;;;;;3.73;2.40;;;8.00;1.00;;;;;;5120120;28;20168;-44
2023/12/30 03:14:22;;;;;;;3.80;2.40;;;8.00;1.00;;;;;;5120215;28;20190;-43
2023/12/30 03:16:47;;;;;;;2.50;2.10;;;7.90;1.00;;;;;;5120865;28;20258;-43
2023/12/30 03:19:13;;;;;;;2.87;2.60;;;7.90;1.00;;;;;;5117632;28;20571;-42
2023/12/30 03:21:38;;;;;;;4.40;2.37;;;7.90;1.00;;;;;;5099413;28;20175;-43
2023/12/30 03:24:04;;;;;;;4.07;2.57;;;7.90;1.00;;;;;;5117067;28;20281;-43
2023/12/30 03:26:29;;;;;;;3.97;2.57;;;7.80;1.00;;;;;;5116875;28;20218;-44
2023/12/30 03:28:55;;;;;;;4.10;2.73;;;7.80;1.00;;;;;;5117105;28;20240;-42
2023/12/30 03:31:26;;;;;;;3.80;2.60;;;7.80;1.00;;;;;;5117692;28;20203;-45
2023/12/30 03:33:52;;;;;;;3.67;2.60;;;7.80;1.00;;;;;;5118582;28;20206;-45
2023/12/30 03:36:17;;;;;;;3.23;2.27;;;7.90;1.00;;;;;;5118791;28;20445;-47
2023/12/30 03:38:43;;;;;;;4.93;2.30;;;7.90;1.00;;;;;;5117845;28;20278;-48
2023/12/30 03:41:08;;;;;;;6.40;2.27;;;8.20;99.90;;;;;;5117554;28;20535;-45
2023/12/30 03:43:34;;;;;;;2.40;2.20;;;8.40;99.90;;;;;;5117474;28;20522;-45
2023/12/30 03:45:59;;;;;;;7.00;2.40;;;8.60;99.90;;;;;;5117818;28;20199;-45
2023/12/30 03:48:25;;;;;;;4.30;2.07;;;8.80;1.00;;;;;;5118574;28;20410;-44
2023/12/30 03:50:50;;;;;;;5.13;2.67;;;8.80;1.00;;;;;;5117290;28;20317;-49
2023/12/30 03:53:16;;;;;;;2.20;1.87;;;9.00;44.70;;;;;;5116506;28;20565;-50
2023/12/30 03:55:41;;;;;;;3.37;2.30;;;9.20;99.90;;;;;;5116051;28;20234;-46
2023/12/30 03:58:07;;;;;;;3.47;2.60;;;9.50;4.10;;;;;;5116178;28;20209;-45
2023/12/30 04:00:32;;;;;;;2.93;1.87;;;9.20;99.90;;;;;;5116565;28;20175;-43
2023/12/30 04:02:58;;;;;;;3.67;2.40;;;8.90;99.90;;;;;;5116520;28;20176;-44
2023/12/30 04:05:24;;;;;;;3.53;1.90;;;8.70;99.90;;;;;;5118079;28;20176;-43
2023/12/30 04:07:50;;;;;;;4.97;1.80;;;8.50;1.00;;;;;;5115829;28;20482;-45
2023/12/30 04:10:17;;;;;;;3.10;1.80;;;8.20;1.00;;;;;;5114768;28;20200;-45
2023/12/30 04:12:43;;;;;;;3.73;2.07;;;8.20;1.00;;;;;;5115597;28;20442;-45
2023/12/30 04:15:09;;;;;;;4.97;1.80;;;8.00;1.00;;;;;;5116102;28;20460;-44
2023/12/30 04:17:34;;;;;;;2.20;2.00;;;8.00;30.40;;;;;;5118189;28;20206;-46
2023/12/30 04:20:00;;;;;;;2.43;1.60;;;7.90;99.90;;;;;;5117886;28;20429;-42
2023/12/30 04:22:27;;;;;;;3.23;2.43;;;7.90;99.90;;;;;;5117481;28;20175;-45
2023/12/30 04:24:53;;;;;;;2.87;1.97;;;7.80;99.90;;;;;;5118130;28;20179;-45
2023/12/30 04:27:18;;;;;;;3.97;2.30;;;7.80;99.90;;;;;;5118117;28;20494;-45
2023/12/30 04:29:44;;;;;;;3.03;1.87;;;7.80;99.90;;;;;;5118334;28;20221;-46
2023/12/30 04:32:09;;;;;;;2.47;1.73;;;7.70;99.90;;;;;;5115694;28;20271;-44
2023/12/30 04:34:35;;;;;;;2.00;1.50;;;7.70;99.90;;;;;;5116672;28;20275;-44
2023/12/30 04:37:01;;;;;;;1.67;1.57;;;7.70;99.90;;;;;;5115877;28;20168;-46
2023/12/30 04:39:27;;;;;;;2.40;1.60;;;7.60;99.90;;;;;;5116589;27;20183;-45
2023/12/30 04:41:52;;;;;;;2.60;1.70;;;7.60;99.90;;;;;;5116135;28;20743;-46
2023/12/30 04:44:18;;;;;;;4.03;1.80;;;7.60;99.90;;;;;;5115959;28;20179;-44
2023/12/30 04:46:43;;;;;;;2.60;1.80;;;7.60;99.90;;;;;;5116743;28;20291;-47
2023/12/30 04:49:11;;;;;;;2.17;1.97;;;7.70;99.90;;;;;;5115065;28;20186;-44
2023/12/30 04:51:37;;;;;;;2.07;1.70;;;7.70;99.90;;;;;;5116240;28;20183;-45
2023/12/30 04:54:03;;;;;;;2.97;1.60;;;7.70;99.90;;;;;;5114990;28;20458;-44
2023/12/30 04:56:29;;;;;;;2.27;1.83;;;7.60;99.90;;;;;;5116124;28;20873;-44
2023/12/30 04:58:55;;;;;;;1.93;1.53;;;7.70;99.90;;;;;;5114955;28;20528;-43
2023/12/30 05:01:20;;;;;;;3.73;1.80;;;7.60;1.00;;;;;;5115270;28;20168;-43
2023/12/30 05:03:46;;;;;;;3.83;1.73;;;7.70;1.00;;;;;;5114904;28;20208;-46
2023/12/30 05:06:21;;;;;;;1.90;1.70;;;7.60;1.00;;;;;;5113553;28;20188;-44
2023/12/30 05:08:47;;;;;;;3.80;1.70;;;7.50;1.00;;;;;;5113648;28;20552;-43
2023/12/30 05:11:13;;;;;;;2.90;1.73;;;7.50;1.00;;;;;;5114492;28;20870;-44
2023/12/30 05:13:39;;;;;;;12.30;2.30;;;7.50;1.00;;;;;;5114014;28;20413;-43
2023/12/30 05:16:05;;;;;;;2.00;1.80;;;7.50;1.00;;;;;;5113045;28;20172;-43
2023/12/30 05:18:30;;;;;;;2.97;2.57;;;7.40;1.00;;;;;;5113520;28;20267;-45
2023/12/30 05:20:56;;;;;;;2.07;1.37;;;7.40;1.00;;;;;;5112960;28;20532;-42
2023/12/30 05:23:21;;;;;;;2.57;1.90;;;7.40;1.00;;;;;;5113160;28;20218;-45
2023/12/30 05:25:47;;;;;;;3.20;1.97;;;7.50;1.00;;;;;;5116753;28;20421;-42
2023/12/30 05:28:13;;;;;;;2.40;1.47;;;7.50;1.00;;;;;;5114661;28;20182;-43
2023/12/30 05:30:38;;;;;;;2.40;1.43;;;7.50;1.00;;;;;;5113243;28;20465;-43
2023/12/30 05:33:04;;;;;;;2.40;1.60;;;7.40;1.00;;;;;;5112023;28;20534;-43
2023/12/30 05:35:30;;;;;;;2.03;1.80;;;7.40;1.00;;;;;;5113367;28;20254;-43
2023/12/30 05:37:56;;;;;;;2.30;1.60;;;7.40;1.00;;;;;;5113417;28;20768;-42
2023/12/30 05:40:21;;;;;;;1.87;1.40;;;7.40;1.00;;;;;;5112568;28;20183;-45
2023/12/30 05:42:47;;;;;;;2.60;1.40;;;7.40;1.00;;;;;;5113656;28;20480;-45
2023/12/30 05:45:12;;;;;;;1.83;1.63;;;7.40;1.00;;;;;;5116545;28;20180;-47
2023/12/30 05:47:38;;;;;;;2.60;1.60;;;7.40;1.00;;;;;;5116024;28;20221;-43
2023/12/30 05:50:04;;;;;;;3.53;1.87;;;7.40;1.00;;;;;;5117066;28;20207;-44
2023/12/30 05:52:30;;;;;;;3.97;1.77;;;7.40;1.00;;;;;;5115333;28;20282;-43
2023/12/30 05:54:55;;;;;;;2.50;1.70;;;7.40;1.00;;;;;;5116339;28;20460;-43
2023/12/30 05:57:21;;;;;;;2.03;1.30;;;7.40;1.00;;;;;;5114770;28;20172;-44
2023/12/30 05:59:46;;;;;;;5.30;1.60;;;7.40;1.00;;;;;;5113996;28;20422;-46
2023/12/30 06:02:12;;;;;;;3.33;1.80;;;7.40;1.00;;;;;;5112099;28;20172;-45
2023/12/30 06:04:41;;;;;;;2.30;1.47;;;7.40;1.00;;;;;;5111419;28;20463;-42
2023/12/30 06:07:08;;;;;;;2.20;1.80;;;7.40;1.00;;;;;;5111785;28;20191;-46
2023/12/30 06:09:34;;;;;;;1.73;1.57;;;7.30;1.00;;;;;;5111889;28;20496;-44
2023/12/30 06:11:59;;;;;;;2.90;1.47;;;7.30;1.00;;;;;;5113470;28;20426;-42
2023/12/30 06:14:25;;;;;;;3.90;2.10;;;7.40;1.00;;;;;;5113298;28;20471;-45
2023/12/30 06:16:51;;;;;;;2.90;1.57;;;7.40;1.00;;;;;;5113881;28;20270;-45
2023/12/30 06:19:16;;;;;;;2.00;1.43;;;7.40;1.00;;;;;;5112973;28;20421;-45
2023/12/30 06:21:43;;;;;;;2.27;1.53;;;7.40;1.00;;;;;;5113737;28;20712;-43
2023/12/30 06:24:08;;;;;;;3.20;1.93;;;7.30;1.00;;;;;;5112590;28;20172;-43
2023/12/30 06:26:38;;;;;;;3.73;2.00;;;7.30;1.00;;;;;;5114266;28;20562;-43
2023/12/30 06:29:05;;;;;;;2.50;1.70;;;7.30;1.00;;;;;;5113186;28;20182;-43
2023/12/30 06:31:30;;;;;;;3.40;2.10;;;7.40;1.00;;;;;;5114346;28;20432;-47
2023/12/30 06:33:56;;;;;;;2.50;2.03;;;7.30;1.00;;;;;;5114405;28;20406;-43
2023/12/30 06:36:23;;;;;;;3.10;2.40;;;7.30;1.00;;;;;;5113539;28;20175;-43
2023/12/30 06:38:49;;;;;;;2.07;1.87;;;7.40;1.00;;;;;;5096072;28;20184;-44
2023/12/30 06:41:18;;;;;;;3.20;1.70;;;7.40;1.00;;;;;;5112712;28;20516;-45
2023/12/30 06:43:44;;;;;;;2.70;2.40;;;7.40;1.00;;;;;;5112382;28;20421;-45
2023/12/30 06:46:09;;;;;;;5.57;1.83;;;7.40;1.00;;;;;;5114198;28;20474;-43
2023/12/30 06:48:35;;;;;;;3.10;2.30;;;7.40;1.00;;;;;;5114192;28;20418;-45
2023/12/30 06:51:02;;;;;;;2.30;1.97;;;7.40;1.00;;;;;;5113953;28;20293;-41
2023/12/30 06:53:30;;;;;;;3.13;2.00;;;7.40;1.00;;;;;;5114596;28;20318;-40
2023/12/30 06:56:02;;;;;;;2.83;1.90;;;7.40;1.00;;;;;;5113303;28;20714;-43
2023/12/30 06:58:29;;;;;;;2.53;2.33;;;7.40;1.00;;;;;;5111325;28;20425;-42
2023/12/30 07:00:54;;;;;;;6.03;3.00;;;7.40;1.00;;;;;;5110696;28;20417;-40
2023/12/30 07:03:20;;;;;;;3.40;2.00;;;7.50;1.00;;;;;;5110751;28;20425;-41
2023/12/30 07:05:45;;;;;;;4.10;2.53;;;7.60;1.00;;;;;;5110346;28;20188;-44
2023/12/30 07:08:12;;;;;;;3.20;2.90;;;7.60;1.00;;;;;;5109329;28;20230;-43
2023/12/30 07:10:38;;;;;;;3.10;2.63;;;7.50;1.00;;;;;;5110496;28;20366;-41
2023/12/30 07:13:03;;;;;;;4.17;2.60;;;7.60;1.00;;;;;;5112829;28;20433;-41
2023/12/30 07:15:29;;;;;;;4.27;2.73;;;7.60;1.00;;;;;;5114176;28;20379;-42
2023/12/30 07:17:55;;;;;;;3.30;3.00;;;7.60;1.00;;;;;;5113334;28;20175;-44
2023/12/30 07:20:25;;;;;;;3.10;2.80;;;7.60;1.00;;;;;;5112817;28;20179;-44
2023/12/30 07:22:52;;;;;;;3.30;3.00;;;7.50;1.00;;;;;;5113505;28;20716;-43
2023/12/30 07:25:17;;;;;;;7.10;2.93;;;7.50;1.00;;;;;;5109638;28;20436;-41
2023/12/30 07:27:43;;;;;;;3.67;2.93;;;7.50;1.00;;;;;;5109963;28;20425;-43
2023/12/30 07:30:08;;;;;;;3.80;2.40;;;7.50;1.00;;;;;;5111523;28;20609;-43
2023/12/30 07:32:35;;;;;;;4.20;2.27;;;7.50;1.00;;;;;;5112717;28;20572;-41
2023/12/30 07:35:01;;;;;;;3.37;2.70;;;7.60;1.00;;;;;;5112554;28;20425;-45
2023/12/30 07:37:27;;;;;;;3.23;2.83;;;7.70;1.00;;;;;;5115151;28;20831;-44
2023/12/30 07:39:53;;;;;;;2.63;2.30;;;7.80;1.00;;;;;;5117173;28;20171;-42
2023/12/30 07:42:18;;;;;;;2.63;2.43;;;7.80;1.00;;;;;;5117809;28;20421;-41
2023/12/30 07:44:44;;;;;;;4.40;2.50;;;7.80;1.00;;;;;;5118774;28;20207;-43
2023/12/30 07:47:09;;;;;;;3.40;2.50;;;7.80;1.00;;;;;;5117716;28;20195;-45
2023/12/30 07:49:35;;;;;;;3.53;2.80;;;7.80;1.00;;;;;;5119242;28;20607;-41
2023/12/30 07:52:01;;;;;;;4.37;3.07;;;7.80;1.00;;;;;;5118705;28;20174;-42
2023/12/30 07:54:27;;;;;;;2.97;2.70;;;7.80;1.00;;;;;;5118735;28;20712;-45
2023/12/30 07:56:53;;;;;;;2.90;2.60;;;7.80;1.00;;;;;;5118056;28;20428;-42
2023/12/30 07:59:18;;;;;;;3.97;2.67;;;7.80;1.00;;;;;;5116774;28;20190;-47
2023/12/30 08:01:44;;;;;;;3.63;2.23;;;7.90;1.00;;;;;;5115910;28;20260;-45
2023/12/30 08:04:10;;;;;;;2.80;2.57;;;8.00;1.00;;;;;;5116447;27;20284;-41
2023/12/30 08:06:36;;;;;;;2.83;2.10;;;8.00;1.00;;;;;;5116892;28;20188;-43
2023/12/30 08:09:01;;;;;;;3.93;2.50;;;8.10;1.00;;;;;;5115481;28;20203;-44
2023/12/30 08:11:28;;;;;;;3.50;2.70;;;8.10;1.00;;;;;;5113904;28;20176;-42
2023/12/30 08:13:54;;;;;;;2.70;2.47;;;8.10;1.00;;;;;;5111758;28;20184;-43
2023/12/30 08:16:20;;;;;;;2.40;2.20;;;8.20;1.00;;;;;;5112904;28;20500;-43
2023/12/30 08:18:48;;;;;;;3.10;2.07;;;8.30;1.00;;;;;;5112997;28;20202;-41
2023/12/30 08:21:14;;;;;;;3.27;2.33;;;8.40;1.00;;;;;;5114266;28;20171;-45
2023/12/30 08:23:40;;;;;;;2.30;1.90;;;8.40;1.00;;;;;;5116558;28;20430;-45
2023/12/30 08:26:05;;;;;;;2.90;2.57;;;8.40;1.00;;;;;;5115946;28;20558;-45
2023/12/30 08:28:31;;;;;;;3.60;2.40;;;8.60;1.00;;;;;;5117941;28;20160;-42
2023/12/30 08:30:59;;;;;;;3.67;2.17;;;8.70;99.90;;;;;;5116276;28;20203;-43
2023/12/30 08:33:25;;;;;;;4.03;2.00;;;8.70;99.90;;;;;;5117308;28;20421;-43
2023/12/30 08:35:50;;;;;;;3.13;2.20;;;8.80;99.90;;;;;;5116875;28;20429;-44
2023/12/30 08:38:18;;;;;;;2.40;2.20;;;8.90;99.90;;;;;;5114934;28;20446;-43
2023/12/30 08:40:44;;;;;;;2.50;1.70;;;8.80;99.90;;;;;;5115992;28;20164;-42
2023/12/30 08:43:11;;;;;;;3.47;1.80;;;8.80;99.90;;;;;;5115823;28;20545;-42
2023/12/30 08:45:37;;;;;;;5.83;2.10;;;8.80;99.90;;;;;;5116281;27;20183;-42
2023/12/30 08:48:03;;;;;;;4.03;2.30;;;8.70;99.90;;;;;;5114889;28;20844;-44
2023/12/30 08:50:30;;;;;;;2.80;2.10;;;8.70;99.90;;;;;;5113861;28;20796;-44
2023/12/30 08:52:55;;;;;;;2.37;1.57;;;8.60;99.90;;;;;;5115509;28;20556;-43
2023/12/30 08:55:21;;;;;;;2.13;1.77;;;8.60;59.00;;;;;;5113056;28;20595;-42
2023/12/30 08:57:46;;;;;;;3.20;1.70;;;8.70;28.00;;;;;;5112196;28;20172;-42
2023/12/30 09:00:12;;;;;;;3.20;2.30;;;8.80;1.00;;;;;;5110995;28;20184;-44
2023/12/30 09:02:46;;;;;;;1.70;1.20;;;8.90;1.00;;;;;;5112849;28;20239;-42
2023/12/30 09:05:11;;;;;;;1.53;1.40;;;9.00;1.00;;;;;;5114077;27;20490;-44
2023/12/30 09:07:37;;;;;;;1.50;1.20;;;8.80;1.00;;;;;;5110843;28;20414;-43
2023/12/30 09:10:03;;;;;;;2.40;2.17;;;8.80;1.00;;;;;;5112661;28;20196;-43
2023/12/30 09:12:28;;;;;;;2.07;1.43;;;9.00;1.00;;;;;;5113301;28;20188;-41
2023/12/30 09:14:54;;;;;;;2.43;1.43;;;9.30;99.90;;;;;;5114693;28;20570;-42
2023/12/30 09:17:21;;;;;;;3.00;1.90;;;10.00;1.00;;;;;;5115332;28;20374;-43
2023/12/30 09:19:47;;;;;;;4.17;1.30;;;10.70;1.00;;;;;;5115690;28;20556;-41
2023/12/30 09:22:12;;;;;;;2.20;1.40;;;11.20;52.20;;;;;;5115092;28;20179;-43
2023/12/30 09:24:38;;;;;;;1.80;1.27;;;11.10;1.00;;;;;;5114017;28;20246;-45
2023/12/30 09:27:03;;;;;;;2.40;1.93;;;10.90;1.00;;;;;;5114494;28;20203;-41
2023/12/30 09:29:29;;;;;;;3.40;1.73;;;10.60;99.90;;;;;;5113411;28;20604;-43
2023/12/30 09:31:54;;;;;;;1.90;1.60;;;10.20;1.00;;;;;;5115353;28;20179;-44
2023/12/30 09:34:20;;;;;;;2.40;1.60;;;10.00;99.90;;;;;;5114610;28;20285;-43
2023/12/30 09:36:46;;;;;;;1.77;1.23;;;9.90;1.00;;;;;;5114698;28;20230;-42
2023/12/30 09:39:11;;;;;;;2.90;1.80;;;9.80;99.90;;;;;;5114386;28;20592;-44
2023/12/30 09:41:40;;;;;;;2.00;1.20;;;10.00;99.90;;;;;;5113872;28;20261;-41
2023/12/30 09:44:06;;;;;;;4.13;1.43;;;10.10;1.00;;;;;;5113391;28;20180;-42
2023/12/30 09:46:33;;;;;;;4.30;1.37;;;10.20;1.00;;;;;;5113963;28;20425;-42
2023/12/30 09:48:59;;;;;;;2.67;1.00;;;10.30;99.90;;;;;;5111656;28;20441;-43
2023/12/30 09:51:27;;;;;;;1.47;0.90;;;10.50;99.90;;;;;;5113309;28;20808;-44
2023/12/30 09:53:53;;;;;;;4.10;1.20;;;11.20;99.90;;;;;;5113083;28;20483;-43
2023/12/30 09:56:18;;;;;;;1.47;0.83;;;11.60;1.00;;;;;;5113792;28;20421;-41
2023/12/30 09:58:44;;;;;;;1.90;1.23;;;11.90;1.00;;;;;;5112872;28;20179;-44
2023/12/30 10:01:10;;;;;;;3.60;1.40;;;12.00;99.90;;;;;;5112163;28;20499;-45
2023/12/30 10:03:35;;;;;;;2.13;1.07;;;12.30;99.90;;;;;;5112926;28;20215;-43
2023/12/30 10:06:04;;;;;;;1.90;1.10;;;12.40;1.00;;;;;;5114763;28;20180;-43
2023/12/30 10:08:29;;;;;;;1.67;1.00;;;12.10;1.00;;;;;;5115018;28;20237;-45
2023/12/30 10:10:57;;;;;;;1.40;1.03;;;11.90;1.00;;;;;;5115900;28;20559;-42
2023/12/30 10:13:25;;;;;;;2.90;1.10;;;11.70;1.00;;;;;;5115509;28;20658;-46
2023/12/30 10:15:52;;;;;;;2.43;1.30;;;12.60;1.00;;;;;;5114360;28;20490;-45
2023/12/30 10:18:19;;;;;;;4.30;1.93;;;13.70;99.90;;;;;;5114967;28;20430;-46
2023/12/30 10:20:45;;;;;;;1.73;1.00;;;15.40;67.00;;;;;;5115521;28;20438;-43
2023/12/30 10:23:11;;;;;;;2.30;1.30;;;15.60;1.00;;;;;;5114183;28;20433;-41
2023/12/30 10:25:37;;;;;;;3.50;1.23;;;15.50;1.00;;;;;;5116949;28;20806;-42
2023/12/30 10:28:03;;;;;;;2.77;1.20;;;15.20;1.00;;;;;;5116573;28;20244;-42
2023/12/30 10:30:30;;;;;;;2.47;1.10;;;15.00;1.00;;;;;;5115248;28;20212;-41
2023/12/30 10:33:09;;;;;;;2.30;1.30;;;14.50;1.00;;;;;;5115612;28;20425;-42
2023/12/30 10:35:35;;;;;;;2.43;1.63;;;13.90;1.00;;;;;;5115664;28;20755;-41
2023/12/30 10:38:04;;;;;;;4.03;1.40;;;13.80;1.00;;;;;;5115894;28;20417;-43
2023/12/30 10:40:30;;;;;;;2.80;0.97;;;14.30;1.00;;;;;;5115062;28;20176;-45
2023/12/30 10:42:57;;;;;;;2.80;0.90;;;14.10;1.00;;;;;;5113934;28;20406;-42
2023/12/30 10:45:23;;;;;;;4.33;1.30;;;14.20;1.00;;;;;;5114985;28;20425;-43
2023/12/30 10:47:50;;;;;;;2.47;1.23;;;14.10;1.00;;;;;;5115246;28;20845;-43
2023/12/30 10:50:15;;;;;;;2.30;1.20;;;13.70;1.00;;;;;;5115473;28;20508;-45
2023/12/30 10:52:48;;;;;;;1.40;0.83;;;13.10;1.00;;;;;;5115196;28;20501;-44
2023/12/30 10:55:16;;;;;;;1.90;0.90;;;13.20;1.00;;;;;;5113559;28;20274;-44
2023/12/30 10:57:48;;;;;;;3.10;0.87;;;13.50;1.00;;;;;;5113542;28;20827;-45
2023/12/30 11:00:18;;;;;;;1.30;0.60;;;14.30;1.00;;;;;;5113460;28;20436;-42
2023/12/30 11:02:44;;;;;;;1.30;1.00;;;14.90;1.00;;;;;;5113653;28;20547;-47
2023/12/30 11:05:14;;;;;;;1.73;0.87;;;14.70;1.00;;;;;;5113090;28;20516;-49
2023/12/30 11:07:39;;;;;;;1.30;0.90;;;14.30;1.00;;;;;;5115817;28;20567;-43
2023/12/30 11:10:16;;;;;;;2.50;0.83;;;14.90;1.00;;;;;;5115762;28;20473;-45
2023/12/30 11:12:41;;;;;;;1.40;0.70;;;15.10;1.00;;;;;;5116268;28;20197;-42
2023/12/30 11:15:31;;;;;;;1.33;0.70;;;16.00;1.00;;;;;;5117392;28;20448;-45
2023/12/30 11:17:57;;;;;;;1.00;0.70;;;16.30;1.00;;;;;;5118095;28;20172;-46
2023/12/30 11:20:27;;;;;;;1.97;1.03;;;16.70;1.00;;;;;;5119078;28;20420;-44
2023/12/30 11:22:54;;;;;;;3.00;0.80;;;17.50;1.00;;;;;;5118694;28;20749;-48
2023/12/30 11:25:20;;;;;;;2.30;0.97;;;18.50;1.00;;;;;;5118062;28;20707;-41
2023/12/30 11:27:53;;;;;;;1.83;0.90;;;18.90;1.00;;;;;;5115763;27;20516;-42
2023/12/30 11:30:24;;;;;;;1.37;0.77;;;19.90;1.00;;;;;;5113588;28;20211;-46
2023/12/30 11:32:52;;;;;;;2.10;1.00;;;19.90;1.00;;;;;;5113069;28;20773;-42
2023/12/30 11:35:17;;;;;;;2.50;0.80;;;19.60;1.00;;;;;;5113452;28;20428;-44
2023/12/30 11:37:46;;;;;;;2.10;0.97;;;18.70;1.00;;;;;;5095419;28;20414;-43
2023/12/30 11:40:16;;;;;;;2.33;1.17;;;18.10;1.00;;;;;;5115426;28;20176;-44
2023/12/30 11:42:41;;;;;;;1.83;0.70;;;17.40;1.00;;;;;;5113032;28;20421;-45
2023/12/30 11:45:08;;;;;;;1.23;0.73;;;16.50;1.00;;;;;;5113584;28;20425;-45
2023/12/30 11:47:34;;;;;;;1.20;0.70;;;16.30;1.00;;;;;;5114854;28;20178;-47
2023/12/30 11:50:04;;;;;;;2.00;0.67;;;16.10;1.00;;;;;;5116616;28;20483;-42
2023/12/30 11:52:30;;;;;;;1.90;0.80;;;16.50;1.00;;;;;;5116674;28;20568;-43
2023/12/30 11:54:55;;;;;;;1.00;0.80;;;17.60;1.00;;;;;;5116057;28;20789;-43
2023/12/30 11:57:21;;;;;;;1.93;0.57;;;17.50;1.00;;;;;;5114191;28;20240;-45
2023/12/30 11:59:46;;;;;;;1.83;0.97;;;17.20;1.00;;;;;;5114320;28;20183;-42
2023/12/30 12:02:13;;;;;;;2.27;0.80;;;17.20;1.00;;;;;;5112952;28;20258;-44
2023/12/30 12:04:39;;;;;;;3.67;1.07;;;17.70;1.00;;;;;;5115355;27;20203;-42
2023/12/30 12:07:05;;;;;;;2.20;1.00;;;17.20;1.00;;;;;;5113720;27;20417;-42
2023/12/30 12:09:31;;;;;;;1.90;0.80;;;17.30;1.00;;;;;;5113017;28;20516;-44
2023/12/30 12:11:56;;;;;;;1.30;0.70;;;16.70;1.00;;;;;;5113774;28;20572;-44
2023/12/30 12:14:22;;;;;;;2.27;1.17;;;16.20;1.00;;;;;;5111777;28;20241;-42
2023/12/30 12:16:47;;;;;;;2.50;1.00;;;15.20;1.00;;;;;;5112194;28;20191;-42
2023/12/30 12:19:15;;;;;;;1.73;1.00;;;14.60;1.00;;;;;;5114843;28;20183;-44
2023/12/30 12:21:40;;;;;;;2.90;1.10;;;14.20;1.00;;;;;;5115333;28;20210;-45
2023/12/30 12:24:06;;;;;;;1.17;0.70;;;14.20;1.00;;;;;;5115241;28;20453;-47
2023/12/30 12:26:32;;;;;;;2.97;0.90;;;14.60;99.90;;;;;;5115243;28;20729;-43
2023/12/30 12:28:58;;;;;;;3.07;1.07;;;14.90;1.00;;;;;;5117429;28;20285;-44
2023/12/30 12:31:30;;;;;;;2.47;1.20;;;14.90;1.00;;;;;;5117563;27;20241;-43
2023/12/30 12:33:55;;;;;;;4.53;0.80;;;15.00;1.00;;;;;;5116737;28;20414;-47
2023/12/30 12:36:21;;;;;;;1.40;0.80;;;14.80;1.00;;;;;;5115027;28;20837;-42
2023/12/30 12:38:47;;;;;;;2.23;0.90;;;15.10;1.00;;;;;;5113809;28;20180;-45
2023/12/30 12:41:13;;;;;;;1.53;0.90;;;15.90;1.00;;;;;;5113747;27;20176;-45
2023/12/30 12:43:38;;;;;;;2.63;1.00;;;16.60;1.00;;;;;;5113481;28;20429;-41
2023/12/30 12:46:04;;;;;;;2.90;1.10;;;16.20;1.00;;;;;;5114190;28;20230;-45
2023/12/30 12:48:30;;;;;;;1.57;0.80;;;16.00;1.00;;;;;;5113641;28;20187;-45
2023/12/30 12:50:55;;;;;;;2.73;1.33;;;15.50;1.00;;;;;;5113639;28;20278;-45
2023/12/30 12:53:22;;;;;;;2.20;1.07;;;15.00;1.00;;;;;;5116203;28;20592;-44
2023/12/30 12:55:48;;;;;;;1.47;1.00;;;14.80;1.00;;;;;;5115288;28;20215;-41
2023/12/30 12:58:13;;;;;;;1.43;0.80;;;14.30;1.00;;;;;;5117453;28;20826;-44